Time;durP1;ratioP1;P1;durP2;ratioP2;P2;SDS_P1;SDS_P2;PMS_P1;PMS_P2;Temp;Humidity;BMP_temperature;BMP_pressure;BME280_temperature;BME280_humidity;BME280_pressure;Samples;Min_cycle;Max_cycle;Signal;HPM_P1;HPM_P2
2022/09/09 00:02:20;;;;;;;3.10;1.13;;;19.80;73.50;;;20.21;46.92;98311.41;5015828;27;119076;-82
2022/09/09 00:05:12;;;;;;;2.57;1.27;;;19.80;73.50;;;20.15;46.57;98298.13;5009594;28;124524;-84
2022/09/09 00:07:49;;;;;;;3.60;1.20;;;19.80;73.50;;;20.10;46.97;98298.50;5023809;27;124810;-84
2022/09/09 00:10:28;;;;;;;2.53;1.00;;;19.80;73.60;;;20.06;46.96;98295.66;5015519;27;119390;-85
2022/09/09 00:13:19;;;;;;;1.53;1.00;;;19.70;73.60;;;20.01;46.80;98291.19;5010530;28;119233;-86
2022/09/09 00:16:04;;;;;;;2.80;1.30;;;19.70;73.60;;;19.98;46.92;98302.41;5019694;27;124290;-84
2022/09/09 00:19:13;;;;;;;2.63;1.37;;;19.70;73.70;;;19.98;47.17;98291.97;5015505;27;124541;-84
2022/09/09 00:21:52;;;;;;;2.60;1.67;;;19.60;73.70;;;19.93;46.89;98289.53;5003483;27;119068;-85
2022/09/09 00:24:38;;;;;;;2.27;1.20;;;19.60;73.70;;;19.92;47.10;98287.94;5017468;27;119023;-83
2022/09/09 00:27:16;;;;;;;2.17;1.30;;;19.60;73.90;;;19.94;47.16;98295.97;5014245;28;125195;-86
2022/09/09 00:29:53;;;;;;;1.53;1.10;;;19.60;74.00;;;19.94;47.08;98291.16;5019069;28;123828;-87
2022/09/09 00:32:21;;;;;;;1.87;1.10;;;19.60;74.10;;;19.97;47.24;98292.38;5015706;27;119341;-84
2022/09/09 00:34:55;;;;;;;4.70;1.40;;;19.60;74.20;;;19.99;47.22;98292.81;5007146;28;119181;-83
2022/09/09 00:37:25;;;;;;;2.67;1.33;;;19.60;74.20;;;20.00;47.07;98291.59;5011599;27;124064;-86
2022/09/09 00:39:56;;;;;;;1.50;0.90;;;19.60;74.20;;;19.99;47.13;98290.00;5010792;27;123764;-86
2022/09/09 00:42:42;;;;;;;1.90;1.30;;;19.60;74.20;;;20.00;47.25;98284.00;5014680;27;119636;-85
2022/09/09 00:45:34;;;;;;;3.07;1.20;;;19.60;74.20;;;20.01;47.22;98279.19;5010720;28;119180;-83
2022/09/09 00:48:10;;;;;;;2.33;1.00;;;19.60;74.30;;;20.04;46.98;98279.22;5021289;28;124758;-85
2022/09/09 00:50:52;;;;;;;1.83;1.10;;;19.60;74.30;;;20.05;46.89;98280.81;5019702;27;123867;-84
2022/09/09 00:53:38;;;;;;;3.03;1.30;;;19.60;74.30;;;20.06;46.96;98292.84;5008427;28;118605;-86
2022/09/09 00:56:21;;;;;;;2.50;1.30;;;19.60;74.20;;;20.08;47.03;98296.06;5006864;28;119513;-85
2022/09/09 00:59:24;;;;;;;4.20;2.20;;;19.70;74.30;;;20.06;46.84;98290.03;5011559;27;125476;-85
2022/09/09 01:01:54;;;;;;;1.40;1.10;;;19.70;74.10;;;20.04;46.89;98289.63;4988213;27;123756;-86
2022/09/09 01:04:34;;;;;;;7.50;1.20;;;19.60;74.00;;;20.03;46.96;98288.00;5015555;28;119452;-84
2022/09/09 01:07:18;;;;;;;2.07;1.00;;;19.60;74.00;;;20.02;46.52;98292.03;5008984;27;119111;-86
2022/09/09 01:10:01;;;;;;;2.40;1.10;;;19.60;74.00;;;20.02;46.69;98286.41;5004919;28;124297;-86
2022/09/09 01:12:48;;;;;;;2.77;1.37;;;19.60;74.00;;;20.00;46.80;98275.56;5016950;28;123279;-84
2022/09/09 01:15:25;;;;;;;3.07;1.23;;;19.60;74.00;;;20.01;46.87;98281.97;5011754;28;119961;-86
2022/09/09 01:18:14;;;;;;;2.60;1.30;;;19.60;74.00;;;20.01;46.58;98273.56;5018058;28;118872;-86
2022/09/09 01:21:00;;;;;;;2.97;1.33;;;19.60;74.00;;;20.00;46.54;98283.19;5009498;27;123977;-85
2022/09/09 01:24:05;;;;;;;2.00;1.13;;;19.60;74.00;;;19.98;46.61;98291.97;4992846;28;123819;-83
2022/09/09 01:26:41;;;;;;;2.93;1.60;;;19.60;73.90;;;19.97;46.62;98289.56;4992257;28;119221;-87
2022/09/09 01:29:12;;;;;;;2.37;1.30;;;19.60;73.80;;;19.94;46.58;98293.16;5001977;28;118749;-85
2022/09/09 01:31:51;;;;;;;2.30;1.07;;;19.50;73.80;;;19.93;46.80;98305.56;4981397;28;124683;-86
2022/09/09 01:34:20;;;;;;;2.73;1.20;;;19.60;73.90;;;19.91;46.71;98302.31;4980603;28;123762;-86
2022/09/09 01:37:05;;;;;;;2.07;1.20;;;19.50;73.80;;;19.90;46.80;98306.31;5001231;28;120236;-84
2022/09/09 01:39:35;;;;;;;3.40;1.40;;;19.50;73.80;;;19.89;46.47;98299.13;4999261;28;120083;-84
2022/09/09 01:42:07;;;;;;;1.60;1.00;;;19.50;73.90;;;19.88;46.91;98301.13;4984140;28;124001;-86
2022/09/09 01:44:36;;;;;;;2.50;1.20;;;19.50;74.00;;;19.88;46.86;98300.28;4990960;28;125961;-84
2022/09/09 01:47:03;;;;;;;1.50;1.00;;;19.50;74.10;;;19.87;46.84;98291.09;4993684;28;119142;-86
2022/09/09 01:49:30;;;;;;;4.60;1.40;;;19.50;74.10;;;19.86;47.13;98295.91;4979960;28;118733;-84
2022/09/09 01:51:58;;;;;;;2.23;1.17;;;19.50;74.20;;;19.87;46.98;98296.69;5002292;28;124077;-86
2022/09/09 01:54:29;;;;;;;2.60;1.23;;;19.50;74.10;;;19.88;47.14;98291.88;4992668;28;124849;-85
2022/09/09 01:57:27;;;;;;;1.77;0.93;;;19.50;74.20;;;19.85;46.95;98294.28;5013134;28;119578;-85
2022/09/09 02:00:11;;;;;;;1.93;1.20;;;19.50;74.30;;;19.84;46.92;98287.06;5015085;28;119308;-80
2022/09/09 02:03:05;;;;;;;2.70;1.43;;;19.50;74.30;;;19.82;46.95;98294.25;5013073;27;123919;-85
2022/09/09 02:05:50;;;;;;;1.60;1.00;;;19.50;74.40;;;19.78;47.30;98282.22;5022284;28;123496;-83
2022/09/09 02:08:50;;;;;;;2.57;1.40;;;19.40;74.40;;;19.74;47.37;98282.16;5007327;28;119336;-84
2022/09/09 02:11:25;;;;;;;3.07;1.53;;;19.40;74.50;;;19.77;47.33;98286.19;4988936;28;118058;-84
2022/09/09 02:14:00;;;;;;;3.93;1.40;;;19.40;74.60;;;19.79;47.29;98295.81;5007749;27;124044;-85
2022/09/09 02:16:57;;;;;;;2.13;1.30;;;19.40;74.70;;;19.77;47.35;98292.63;5014472;28;123918;-84
2022/09/09 02:19:49;;;;;;;5.83;1.40;;;19.40;74.80;;;19.77;47.22;98294.59;5019796;27;119761;-86
2022/09/09 02:22:19;;;;;;;2.17;1.13;;;19.40;74.80;;;19.77;47.53;98298.22;5011270;28;119200;-86
2022/09/09 02:24:47;;;;;;;3.00;1.20;;;19.40;75.00;;;19.76;47.62;98290.19;5020653;28;124047;-85
2022/09/09 02:27:16;;;;;;;5.00;1.20;;;19.40;75.00;;;19.75;47.47;98291.38;5012520;27;121627;-84
2022/09/09 02:29:46;;;;;;;4.70;1.30;;;19.40;75.20;;;19.74;47.52;98287.75;5011491;27;120496;-85
2022/09/09 02:32:17;;;;;;;1.20;1.07;;;19.40;75.30;;;19.76;47.54;98296.59;5015983;28;119816;-86
2022/09/09 02:34:49;;;;;;;2.17;1.50;;;19.40;75.40;;;19.80;47.60;98305.03;5003822;27;124456;-86
2022/09/09 02:37:20;;;;;;;3.90;1.10;;;19.40;75.50;;;19.80;47.97;98314.28;5014425;28;124593;-84
2022/09/09 02:39:47;;;;;;;2.40;1.23;;;19.40;75.50;;;19.79;47.58;98307.03;5034086;27;119323;-86
2022/09/09 02:42:14;;;;;;;4.30;1.30;;;19.40;75.60;;;19.78;47.89;98302.63;5004903;28;118857;-85
2022/09/09 02:44:41;;;;;;;2.70;1.10;;;19.40;75.60;;;19.75;47.87;98303.41;5006112;27;124494;-84
2022/09/09 02:47:20;;;;;;;2.10;1.20;;;19.40;75.60;;;19.71;47.94;98299.75;5018458;28;123850;-86
2022/09/09 02:50:13;;;;;;;1.70;1.13;;;19.40;75.70;;;19.65;47.73;98307.69;5020710;27;119581;-86
2022/09/09 02:53:03;;;;;;;3.63;1.30;;;19.30;75.70;;;19.59;47.97;98294.41;5010834;28;118137;-84
2022/09/09 02:55:48;;;;;;;1.57;1.20;;;19.30;75.90;;;19.56;48.36;98292.38;5018728;28;124252;-85
2022/09/09 02:58:18;;;;;;;4.47;1.10;;;19.30;76.10;;;19.50;48.55;98297.50;5006161;28;123924;-84
2022/09/09 03:00:48;;;;;;;4.27;1.60;;;19.20;76.20;;;19.45;48.59;98297.88;5019050;28;118819;-84
2022/09/09 03:03:17;;;;;;;1.30;1.00;;;19.20;76.30;;;19.41;48.64;98292.22;5007089;28;118991;-85
2022/09/09 03:05:45;;;;;;;4.40;1.47;;;19.10;76.40;;;19.41;48.81;98291.41;5025605;27;124503;-85
2022/09/09 03:08:12;;;;;;;3.83;1.37;;;19.10;76.60;;;19.39;48.84;98272.16;5012303;28;123764;-85
2022/09/09 03:10:39;;;;;;;1.97;1.00;;;19.10;76.80;;;19.42;49.00;98281.81;5008481;28;119201;-84
2022/09/09 03:13:06;;;;;;;3.97;1.50;;;19.10;76.90;;;19.46;48.75;98287.47;5017001;27;118967;-85
2022/09/09 03:15:33;;;;;;;2.80;0.90;;;19.10;77.10;;;19.47;49.05;98286.25;5021420;27;122965;-84
2022/09/09 03:18:01;;;;;;;1.87;1.17;;;19.10;77.10;;;19.47;48.97;98283.47;5015341;27;123670;-82
2022/09/09 03:20:29;;;;;;;2.23;1.13;;;19.10;77.30;;;19.47;49.20;98284.25;5015972;27;120353;-83
2022/09/09 03:22:56;;;;;;;3.80;1.17;;;19.10;77.40;;;19.49;49.04;98281.88;5008806;27;119909;-85
2022/09/09 03:25:24;;;;;;;1.83;1.10;;;19.10;77.50;;;19.51;48.85;98289.94;5020453;28;124344;-87
2022/09/09 03:27:54;;;;;;;1.53;0.90;;;19.10;77.50;;;19.51;48.88;98289.94;5021540;28;125057;-83
2022/09/09 03:30:26;;;;;;;1.67;0.90;;;19.10;77.50;;;19.48;48.98;98287.88;5011908;28;119279;-85
2022/09/09 03:32:55;;;;;;;4.20;1.17;;;19.10;77.50;;;19.43;48.79;98289.84;5009279;28;118231;-85
2022/09/09 03:35:21;;;;;;;1.43;1.00;;;19.00;77.50;;;19.42;48.93;98295.81;5012200;27;124092;-85
2022/09/09 03:37:48;;;;;;;4.40;0.90;;;19.00;77.60;;;19.39;49.09;98288.19;5011717;27;124290;-85
2022/09/09 03:40:15;;;;;;;7.53;1.10;;;19.00;77.70;;;19.36;49.31;98288.94;5010406;28;119335;-85
2022/09/09 03:42:42;;;;;;;5.33;1.30;;;19.00;77.70;;;19.32;49.23;98276.91;5017235;28;117074;-84
2022/09/09 03:45:10;;;;;;;1.73;1.00;;;18.90;77.80;;;19.29;49.29;98284.09;5007048;28;123941;-84
2022/09/09 03:47:37;;;;;;;1.63;1.30;;;18.90;78.20;;;19.27;49.29;98294.88;5025720;28;124815;-82
2022/09/09 03:50:08;;;;;;;2.13;1.07;;;18.90;78.10;;;19.26;49.49;98287.63;5022011;27;119403;-84
2022/09/09 03:52:37;;;;;;;1.90;1.10;;;18.90;78.30;;;19.25;49.60;98282.44;5015506;28;118968;-83
2022/09/09 03:55:05;;;;;;;2.60;1.17;;;18.90;78.40;;;19.22;49.53;98284.00;5024956;27;124813;-83
2022/09/09 03:57:34;;;;;;;1.33;1.13;;;18.80;78.40;;;19.21;49.62;98276.81;5019404;28;124049;-84
2022/09/09 04:00:07;;;;;;;1.73;1.10;;;18.80;78.50;;;19.19;49.72;98279.16;5013323;27;119328;-84
2022/09/09 04:02:34;;;;;;;6.90;1.00;;;18.80;78.50;;;19.17;49.81;98278.75;5014978;27;120213;-83
2022/09/09 04:05:00;;;;;;;2.30;1.10;;;18.80;78.60;;;19.15;49.83;98281.09;5008466;27;124010;-86
2022/09/09 04:07:27;;;;;;;2.93;1.53;;;18.80;78.70;;;19.15;49.75;98287.50;5031498;27;123642;-86
2022/09/09 04:09:54;;;;;;;1.90;0.93;;;18.50;78.50;;;19.13;49.69;98286.31;5020095;27;120679;-85
2022/09/09 04:12:22;;;;;;;2.20;1.20;;;18.70;78.80;;;19.11;49.97;98280.28;5009261;27;120373;-85
2022/09/09 04:14:48;;;;;;;2.20;1.03;;;18.70;78.90;;;19.11;49.94;98283.09;5019122;27;124039;-84
2022/09/09 04:17:15;;;;;;;1.50;1.00;;;18.70;79.70;;;19.12;49.98;98279.06;5019253;28;123789;-86
2022/09/09 04:19:42;;;;;;;1.37;1.00;;;18.70;79.10;;;19.12;49.99;98284.69;5021457;28;119310;-84
2022/09/09 04:22:09;;;;;;;1.50;0.93;;;18.70;79.20;;;19.11;50.18;98291.47;5017695;27;119419;-81
2022/09/09 04:24:35;;;;;;;3.40;1.00;;;18.70;79.30;;;19.09;50.14;98293.84;5009914;28;124077;-81
2022/09/09 04:27:02;;;;;;;4.30;1.57;;;18.70;79.50;;;19.09;50.16;98291.06;5018781;28;123838;-84
2022/09/09 04:29:28;;;;;;;1.47;1.03;;;18.70;79.50;;;19.08;50.15;98303.44;5008058;28;119367;-83
2022/09/09 04:31:55;;;;;;;1.33;1.20;;;18.70;79.60;;;19.06;50.24;98303.03;5016802;27;118978;-83
2022/09/09 04:34:22;;;;;;;1.53;1.17;;;18.60;79.60;;;19.03;50.37;98300.97;5011412;27;124979;-84
2022/09/09 04:36:48;;;;;;;4.10;1.50;;;18.60;79.70;;;19.01;50.41;98303.34;5014380;28;123724;-83
2022/09/09 04:39:15;;;;;;;1.53;1.17;;;18.60;79.90;;;19.00;50.44;98305.34;5015199;27;118998;-85
2022/09/09 04:41:41;;;;;;;2.70;1.10;;;18.60;80.00;;;18.99;50.55;98309.31;5020013;28;118652;-86
2022/09/09 04:44:08;;;;;;;1.87;1.10;;;18.60;80.10;;;18.98;50.50;98310.50;5012135;28;124089;-82
2022/09/09 04:46:34;;;;;;;2.03;1.17;;;18.60;80.10;;;18.98;50.48;98307.72;5011463;28;124099;-85
2022/09/09 04:49:01;;;;;;;1.40;1.20;;;18.60;80.20;;;19.00;50.67;98307.34;5018102;27;119341;-83
2022/09/09 04:51:28;;;;;;;2.87;1.00;;;18.60;80.30;;;18.99;50.57;98314.91;5016006;27;118109;-82
2022/09/09 04:53:54;;;;;;;2.70;1.03;;;18.60;80.30;;;18.95;50.63;98320.47;5016800;28;124064;-84
2022/09/09 04:56:21;;;;;;;1.97;1.13;;;18.60;80.50;;;18.89;50.66;98319.22;5011213;28;124723;-84
2022/09/09 04:58:47;;;;;;;2.60;1.10;;;18.50;80.40;;;18.87;50.80;98310.38;5016396;28;120349;-81
2022/09/09 05:01:20;;;;;;;4.10;1.37;;;18.50;80.40;;;18.84;50.83;98315.94;5019080;28;119226;-81
2022/09/09 05:03:47;;;;;;;4.83;1.53;;;18.50;80.60;;;18.79;50.94;98317.06;5023656;27;124134;-82
2022/09/09 05:06:19;;;;;;;2.03;1.10;;;18.40;80.60;;;18.77;51.05;98308.25;5016113;28;123610;-83
2022/09/09 05:08:46;;;;;;;2.07;1.33;;;18.40;80.80;;;18.77;51.13;98333.44;5019945;28;119422;-81
2022/09/09 05:11:24;;;;;;;3.90;1.70;;;18.40;81.00;;;18.76;51.23;98329.03;5019746;28;118923;-84
2022/09/09 05:13:51;;;;;;;1.73;1.27;;;18.40;81.50;;;18.72;51.35;98328.13;5014409;28;124050;-80
2022/09/09 05:16:18;;;;;;;1.50;1.20;;;18.40;81.30;;;18.71;51.37;98337.72;5024112;27;123028;-85
2022/09/09 05:18:45;;;;;;;1.73;1.43;;;18.40;81.40;;;18.71;51.53;98326.53;5022417;27;118447;-85
2022/09/09 05:21:14;;;;;;;3.40;1.10;;;18.40;81.60;;;18.70;51.58;98330.53;5020553;27;118974;-83
2022/09/09 05:23:41;;;;;;;2.23;1.40;;;18.30;81.60;;;18.70;51.67;98324.91;5023160;28;122926;-85
2022/09/09 05:26:13;;;;;;;6.70;1.50;;;18.30;81.80;;;18.70;51.67;98330.53;5018223;28;124152;-88
2022/09/09 05:28:40;;;;;;;3.00;1.57;;;18.30;82.00;;;18.69;51.68;98340.88;5028632;27;118661;-85
2022/09/09 05:31:11;;;;;;;3.23;1.50;;;18.30;82.10;;;18.68;51.76;98327.28;5015813;28;119603;-86
2022/09/09 05:33:42;;;;;;;4.53;1.30;;;18.30;82.20;;;18.68;51.97;98330.88;4996650;28;122359;-85
2022/09/09 05:36:14;;;;;;;3.03;1.30;;;18.30;82.30;;;18.69;51.98;98342.88;5013821;28;123853;-87
2022/09/09 05:38:41;;;;;;;2.30;1.10;;;18.30;82.40;;;18.72;51.82;98333.72;5026221;28;118325;-85
2022/09/09 05:41:11;;;;;;;3.07;1.40;;;18.70;82.80;;;18.76;51.85;98331.81;5027744;27;119269;-84
2022/09/09 05:43:38;;;;;;;2.87;1.63;;;18.40;82.60;;;18.80;51.90;98332.66;5024024;27;124037;-84
2022/09/09 05:46:13;;;;;;;3.60;1.70;;;18.40;82.60;;;18.80;51.72;98341.06;5020743;28;123814;-82
2022/09/09 05:48:43;;;;;;;3.57;1.20;;;18.40;82.60;;;18.84;51.77;98338.34;5014730;27;120293;-79
2022/09/09 05:51:12;;;;;;;4.20;1.20;;;18.40;82.70;;;18.89;51.76;98333.22;5012994;28;119677;-83
2022/09/09 05:53:39;;;;;;;2.43;1.20;;;18.40;82.80;;;18.96;51.64;98333.28;5014869;27;124902;-84
2022/09/09 05:56:10;;;;;;;4.27;1.30;;;18.50;82.90;;;19.03;51.51;98338.19;5009347;28;123938;-86
2022/09/09 05:58:37;;;;;;;1.50;1.30;;;18.50;82.80;;;19.07;51.52;98344.63;5019618;27;119416;-84
2022/09/09 06:01:14;;;;;;;2.87;1.20;;;18.60;82.90;;;19.11;51.31;98347.50;5018325;28;119608;-83
2022/09/09 06:03:44;;;;;;;4.50;1.67;;;18.60;82.90;;;19.13;51.56;98345.13;5019848;27;122613;-79
2022/09/09 06:06:17;;;;;;;2.73;1.60;;;18.60;82.90;;;19.17;51.51;98337.56;5019952;27;124078;-83
2022/09/09 06:08:45;;;;;;;1.50;1.00;;;18.70;82.90;;;19.20;51.35;98342.38;5021946;27;119544;-81
2022/09/09 06:11:27;;;;;;;3.00;1.50;;;18.70;82.90;;;19.24;51.41;98340.44;5010146;28;119103;-87
2022/09/09 06:13:54;;;;;;;3.23;1.30;;;18.70;82.90;;;19.26;51.35;98334.44;5008291;27;124252;-82
2022/09/09 06:16:26;;;;;;;3.50;1.60;;;18.70;82.90;;;19.24;51.26;98337.66;5021638;27;123876;-84
2022/09/09 06:18:57;;;;;;;1.40;1.10;;;18.70;82.80;;;19.24;51.50;98334.06;5020480;27;118320;-84
2022/09/09 06:21:27;;;;;;;1.30;1.20;;;18.70;82.90;;;19.23;51.38;98347.22;5014187;28;120937;-85
2022/09/09 06:23:54;;;;;;;3.37;1.23;;;18.70;82.90;;;19.27;51.50;98350.09;5005516;28;123885;-83
2022/09/09 06:26:25;;;;;;;2.70;1.40;;;18.80;83.10;;;19.29;51.45;98351.31;5009069;27;123653;-82
2022/09/09 06:28:53;;;;;;;3.33;1.47;;;18.80;83.20;;;19.27;51.62;98350.88;5025280;28;119266;-83
2022/09/09 06:31:24;;;;;;;1.90;1.30;;;18.80;83.20;;;19.27;51.59;98341.69;5022025;28;119005;-84
2022/09/09 06:33:53;;;;;;;1.80;1.10;;;18.80;83.20;;;19.27;51.63;98345.28;5020042;28;124140;-83
2022/09/09 06:36:25;;;;;;;2.07;1.17;;;18.80;83.30;;;19.30;51.56;98344.53;5004530;27;124307;-85
2022/09/09 06:38:51;;;;;;;3.10;1.50;;;18.90;83.40;;;19.34;51.78;98348.19;5003428;28;120394;-84
2022/09/09 06:41:20;;;;;;;2.13;1.50;;;18.90;83.40;;;19.37;51.79;98341.81;5017897;27;119835;-85
2022/09/09 06:43:48;;;;;;;3.23;1.30;;;18.90;83.40;;;19.42;51.56;98341.47;5009197;28;125092;-82
2022/09/09 06:46:27;;;;;;;2.17;1.57;;;18.90;83.50;;;19.50;51.56;98341.53;5015221;27;123647;-82
2022/09/09 06:48:58;;;;;;;1.93;1.40;;;19.00;83.50;;;19.56;51.46;98345.63;5012263;27;119358;-84
2022/09/09 06:51:29;;;;;;;2.50;1.60;;;19.10;83.60;;;19.62;51.53;98350.50;5012158;27;119022;-82
2022/09/09 06:53:59;;;;;;;2.60;1.90;;;19.10;83.50;;;19.70;51.25;98347.81;5004774;28;124441;-83
2022/09/09 06:56:31;;;;;;;4.40;1.60;;;19.20;83.60;;;19.74;51.30;98348.63;5005006;28;125028;-83
2022/09/09 06:59:03;;;;;;;2.60;1.30;;;19.20;83.50;;;19.76;51.37;98352.66;5012455;28;120233;-84
2022/09/09 07:01:33;;;;;;;2.30;1.30;;;19.20;83.50;;;19.81;51.26;98352.31;5008529;27;120282;-84
2022/09/09 07:04:00;;;;;;;1.73;1.40;;;19.30;83.50;;;19.89;51.21;98349.59;5011305;28;123978;-85
2022/09/09 07:06:32;;;;;;;2.20;1.50;;;19.30;83.50;;;19.94;50.96;98346.44;5006778;28;123813;-83
2022/09/09 07:09:05;;;;;;;2.03;1.20;;;19.40;83.60;;;20.00;51.11;98344.88;5006406;28;119384;-82
2022/09/09 07:11:41;;;;;;;2.03;1.20;;;19.40;83.40;;;20.06;50.85;98355.34;4996864;28;119809;-84
2022/09/09 07:14:09;;;;;;;1.50;1.20;;;19.50;83.50;;;20.11;51.09;98348.59;4982076;28;123280;-80
2022/09/09 07:16:37;;;;;;;1.97;1.30;;;19.60;83.60;;;20.19;50.94;98347.44;5005014;28;124047;-83
2022/09/09 07:19:04;;;;;;;1.80;1.27;;;19.60;83.50;;;20.25;50.76;98345.88;4950386;28;97130;-83
2022/09/09 07:21:33;;;;;;;3.50;1.70;;;19.70;83.50;;;20.33;50.59;98357.19;5003007;28;119219;-82
2022/09/09 07:24:00;;;;;;;3.70;1.57;;;19.70;83.40;;;20.37;50.48;98353.22;4996078;28;124159;-83
2022/09/09 07:26:30;;;;;;;3.90;1.40;;;19.80;83.20;;;20.37;50.20;98349.63;5006509;28;123839;-79
2022/09/09 07:28:57;;;;;;;2.40;1.27;;;19.80;82.90;;;20.35;50.39;98347.19;5006659;28;120430;-84
2022/09/09 07:31:33;;;;;;;3.30;1.30;;;19.80;82.70;;;20.35;49.99;98349.19;5001614;28;119141;-85
2022/09/09 07:34:01;;;;;;;3.23;1.20;;;19.80;82.70;;;20.37;50.24;98352.41;5005683;28;124190;-81
2022/09/09 07:36:33;;;;;;;4.03;1.40;;;19.80;82.60;;;20.41;49.96;98361.66;4990406;28;122610;-81
2022/09/09 07:39:05;;;;;;;2.00;1.33;;;19.90;82.70;;;20.43;50.15;98356.47;4989830;28;120014;-81
2022/09/09 07:41:43;;;;;;;4.00;1.43;;;19.80;82.50;;;20.44;49.84;98349.66;4974045;28;119552;-86
2022/09/09 07:44:18;;;;;;;2.73;1.30;;;19.90;82.50;;;20.53;50.03;98347.31;5016005;27;123496;-84
2022/09/09 07:46:45;;;;;;;2.50;1.23;;;20.00;82.70;;;20.64;49.74;98355.84;5014781;28;124025;-81
2022/09/09 07:49:12;;;;;;;3.13;1.57;;;20.00;82.50;;;20.68;49.83;98351.84;5023831;28;119967;-82
2022/09/09 07:51:45;;;;;;;3.43;1.30;;;20.10;82.40;;;20.69;49.63;98361.91;5013725;27;119048;-83
2022/09/09 07:54:15;;;;;;;2.53;1.33;;;20.10;82.30;;;20.70;49.51;98354.28;5019824;27;124083;-82
2022/09/09 07:56:42;;;;;;;4.97;1.27;;;20.20;82.20;;;20.69;49.89;98361.91;5022535;28;122563;-83
2022/09/09 07:59:10;;;;;;;1.77;1.07;;;20.20;82.10;;;20.73;49.95;98357.09;5027130;28;119553;-82
2022/09/09 08:01:50;;;;;;;1.90;1.10;;;20.20;82.20;;;20.86;49.81;98346.34;5030737;28;119426;-79
2022/09/09 08:04:19;;;;;;;3.03;1.40;;;20.30;82.20;;;21.02;49.57;98360.09;5027112;28;124549;-84
2022/09/09 08:07:00;;;;;;;2.30;1.20;;;20.40;82.20;;;21.16;49.32;98360.16;5016432;27;123623;-82
2022/09/09 08:09:29;;;;;;;2.27;1.27;;;20.50;82.00;;;21.32;49.23;98368.25;5008155;28;118623;-81
2022/09/09 08:11:58;;;;;;;2.67;1.20;;;20.60;82.00;;;21.47;48.16;98363.53;5005914;27;118907;-83
2022/09/09 08:14:24;;;;;;;3.07;1.67;;;20.80;81.80;;;21.57;48.21;98365.56;5021412;27;123893;-84
2022/09/09 08:17:09;;;;;;;3.53;1.30;;;20.90;81.50;;;21.70;48.23;98363.19;5008501;28;124114;-81
2022/09/09 08:19:38;;;;;;;2.23;1.27;;;21.00;81.20;;;21.81;48.18;98352.75;5016992;27;120092;-82
2022/09/09 08:22:05;;;;;;;2.30;1.10;;;21.10;80.90;;;21.89;47.20;98359.19;5042555;27;119990;-84
2022/09/09 08:24:31;;;;;;;2.77;1.40;;;21.20;80.30;;;21.97;46.85;98369.25;5020646;27;124959;-82
2022/09/09 08:26:58;;;;;;;5.13;1.20;;;21.30;79.90;;;22.02;46.79;98371.69;5012712;28;124177;-83
2022/09/09 08:29:24;;;;;;;3.70;1.20;;;21.30;79.30;;;22.06;46.78;98374.53;5025369;28;119355;-82
2022/09/09 08:31:54;;;;;;;4.67;1.53;;;21.40;79.30;;;22.16;46.49;98375.72;5017542;27;119293;-81
2022/09/09 08:34:22;;;;;;;3.00;1.33;;;21.50;79.20;;;22.24;46.41;98385.81;5015486;28;124187;-82
2022/09/09 08:36:50;;;;;;;2.77;1.27;;;21.60;78.70;;;22.24;45.83;98380.19;5012731;28;124113;-82
2022/09/09 08:39:21;;;;;;;2.73;1.20;;;21.60;78.10;;;22.26;46.13;98374.97;5005839;28;119604;-84
2022/09/09 08:42:02;;;;;;;3.67;1.50;;;21.70;77.80;;;22.23;46.15;98358.88;5008708;27;117034;-84
2022/09/09 08:44:40;;;;;;;4.10;1.47;;;21.70;77.60;;;22.25;46.18;98362.09;5015634;27;124445;-81
2022/09/09 08:48:01;;;;;;;2.50;1.30;;;21.70;77.70;;;22.31;46.07;98365.31;5016387;27;124333;-80
2022/09/09 08:50:38;;;;;;;3.63;1.33;;;21.80;77.50;;;22.41;45.75;98382.22;5002973;28;118478;-83
2022/09/09 08:53:22;;;;;;;2.50;1.20;;;21.90;77.50;;;22.48;45.45;98372.94;5017508;28;118917;-83
2022/09/09 08:56:06;;;;;;;4.43;1.40;;;21.90;77.30;;;22.57;45.40;98369.72;5012752;28;125016;-82
2022/09/09 08:58:35;;;;;;;3.10;1.20;;;22.00;77.10;;;22.68;44.99;98367.72;5007326;27;122843;-84
2022/09/09 09:01:07;;;;;;;3.00;1.40;;;22.10;76.80;;;22.72;44.31;98369.28;5023549;28;119449;-81
2022/09/09 09:03:47;;;;;;;3.03;1.43;;;22.10;75.70;;;22.75;43.78;98373.31;5011848;28;119058;-83
2022/09/09 09:06:36;;;;;;;2.40;1.33;;;22.20;74.90;;;22.74;43.32;98368.91;5018857;27;124225;-84
2022/09/09 09:09:36;;;;;;;4.87;1.60;;;22.20;73.50;;;22.69;43.00;98372.13;5017176;27;123862;-84
2022/09/09 09:12:19;;;;;;;3.20;1.10;;;22.20;72.90;;;22.63;42.82;98376.56;5005788;27;120368;-83
2022/09/09 09:14:47;;;;;;;3.37;1.53;;;22.20;72.60;;;22.61;42.95;98368.50;4990855;28;119469;-83
2022/09/09 09:17:20;;;;;;;5.47;1.40;;;22.20;72.10;;;22.62;42.24;98369.31;5023204;28;123674;-80
2022/09/09 09:19:52;;;;;;;4.83;1.50;;;21.50;71.00;;;22.64;42.57;98373.31;5024915;28;123552;-84
2022/09/09 09:22:26;;;;;;;2.97;1.30;;;22.20;71.60;;;22.63;42.69;98368.91;5006624;27;118624;-82
2022/09/09 09:24:56;;;;;;;3.97;1.10;;;22.20;71.40;;;22.56;42.61;98357.66;5012180;27;118988;-82
2022/09/09 09:27:35;;;;;;;2.20;1.30;;;22.20;71.20;;;22.49;43.57;98381.00;5023249;27;123388;-82
2022/09/09 09:30:15;;;;;;;3.67;1.27;;;22.10;71.90;;;22.43;43.72;98382.63;5018808;28;123764;-84
2022/09/09 09:32:56;;;;;;;6.23;1.87;;;22.10;72.60;;;22.38;44.25;98404.72;5019771;27;119405;-82
2022/09/09 09:35:23;;;;;;;6.57;2.03;;;22.00;73.50;;;22.27;44.56;98394.28;5012243;28;118942;-84
2022/09/09 09:37:50;;;;;;;1.67;1.10;;;21.90;73.70;;;22.20;44.81;98404.72;5006684;27;124107;-83
2022/09/09 09:40:21;;;;;;;2.37;1.10;;;21.90;73.60;;;22.14;44.06;98398.66;5013076;27;123826;-79
2022/09/09 09:43:04;;;;;;;2.30;0.97;;;21.80;73.00;;;22.04;43.38;98380.53;5016911;27;119172;-82
2022/09/09 09:45:41;;;;;;;3.00;1.10;;;21.70;71.90;;;21.99;43.65;98380.94;5021857;27;119482;-84
2022/09/09 09:48:14;;;;;;;2.60;1.20;;;21.60;71.80;;;21.95;43.68;98365.22;5015079;27;124069;-84
2022/09/09 09:50:52;;;;;;;2.37;1.30;;;21.60;71.50;;;21.91;43.43;98370.88;5005539;28;123909;-81
2022/09/09 09:53:24;;;;;;;4.17;1.30;;;21.60;71.30;;;21.91;43.31;98365.25;5016808;27;118644;-84
2022/09/09 09:55:56;;;;;;;2.70;1.00;;;21.60;71.20;;;21.93;43.04;98354.41;5014824;28;119308;-85
2022/09/09 09:58:23;;;;;;;4.10;1.27;;;21.50;71.00;;;21.94;43.03;98353.19;5010041;27;124056;-81
2022/09/09 10:00:52;;;;;;;2.23;1.00;;;21.50;70.80;;;21.95;43.06;98360.44;5008790;27;124459;-84
2022/09/09 10:03:29;;;;;;;4.00;1.30;;;21.50;70.80;;;21.98;42.77;98354.00;5009483;27;120541;-81
2022/09/09 10:05:57;;;;;;;1.93;1.10;;;21.60;70.80;;;21.99;43.19;98338.72;5018988;28;119592;-82
2022/09/09 10:08:26;;;;;;;2.20;1.13;;;21.60;70.80;;;22.03;43.53;98342.38;5017801;27;124195;-81
2022/09/09 10:11:30;;;;;;;3.77;1.40;;;21.60;71.20;;;22.08;43.05;98341.13;5015167;28;126620;-83
2022/09/09 10:14:20;;;;;;;1.83;0.93;;;21.60;71.20;;;22.14;43.49;98333.94;5016418;27;118939;-84
2022/09/09 10:17:27;;;;;;;1.43;1.07;;;21.70;71.50;;;22.18;43.58;98339.53;5006458;27;118802;-79
2022/09/09 10:20:34;;;;;;;3.83;1.20;;;21.70;71.80;;;22.28;43.77;98333.16;5007118;28;123292;-82
2022/09/09 10:23:46;;;;;;;2.70;1.30;;;21.80;72.20;;;22.40;43.91;98318.66;5008560;28;123701;-85
2022/09/09 10:26:58;;;;;;;2.53;1.00;;;21.90;72.80;;;22.54;43.87;98325.47;5007405;28;119568;-81
2022/09/09 10:29:43;;;;;;;2.13;1.30;;;22.00;73.00;;;22.66;43.87;98320.22;5004543;27;119048;-83
2022/09/09 10:32:19;;;;;;;2.70;1.30;;;22.10;73.00;;;22.79;43.32;98317.78;5007414;28;124004;-80
2022/09/09 10:35:28;;;;;;;5.17;2.00;;;22.20;73.00;;;22.91;43.23;98325.78;5009149;28;123890;-83
2022/09/09 10:38:43;;;;;;;5.60;1.60;;;22.30;72.40;;;22.98;43.29;98324.22;5006131;27;119154;-82
2022/09/09 10:41:18;;;;;;;6.13;1.70;;;22.40;72.40;;;23.07;43.11;98324.56;5007587;28;118790;-84
2022/09/09 10:43:53;;;;;;;4.80;1.30;;;22.50;72.40;;;23.21;43.22;98327.31;5014490;28;124106;-84